sensor_id;sensor_type;location;lat;lon;timestamp;temperature;humidity
48515;DHT22;34309;47.260;2.796;2023-01-24T00:00:08;21.80;13.00
48515;DHT22;34309;47.260;2.796;2023-01-24T00:02:42;22.00;12.90
48515;DHT22;34309;47.260;2.796;2023-01-24T00:05:16;22.20;12.80
48515;DHT22;34309;47.260;2.796;2023-01-24T00:07:50;22.30;12.80
48515;DHT22;34309;47.260;2.796;2023-01-24T00:10:24;22.50;12.60
48515;DHT22;34309;47.260;2.796;2023-01-24T00:13:00;22.60;12.40
48515;DHT22;34309;47.260;2.796;2023-01-24T00:15:34;22.70;12.30
48515;DHT22;34309;47.260;2.796;2023-01-24T00:18:08;22.80;12.30
48515;DHT22;34309;47.260;2.796;2023-01-24T00:20:42;22.80;12.30
48515;DHT22;34309;47.260;2.796;2023-01-24T00:23:16;22.80;12.10
48515;DHT22;34309;47.260;2.796;2023-01-24T00:25:49;22.90;12.30
48515;DHT22;34309;47.260;2.796;2023-01-24T00:28:25;22.90;12.20
48515;DHT22;34309;47.260;2.796;2023-01-24T00:30:58;22.80;12.10
48515;DHT22;34309;47.260;2.796;2023-01-24T00:33:32;22.80;12.30
48515;DHT22;34309;47.260;2.796;2023-01-24T00:36:07;22.80;12.20
48515;DHT22;34309;47.260;2.796;2023-01-24T00:38:41;22.70;12.20
48515;DHT22;34309;47.260;2.796;2023-01-24T00:41:15;22.70;12.50
48515;DHT22;34309;47.260;2.796;2023-01-24T00:43:50;22.70;12.30
48515;DHT22;34309;47.260;2.796;2023-01-24T00:46:24;22.60;12.40
48515;DHT22;34309;47.260;2.796;2023-01-24T00:48:58;22.60;12.30
48515;DHT22;34309;47.260;2.796;2023-01-24T00:51:32;22.60;12.40
48515;DHT22;34309;47.260;2.796;2023-01-24T00:54:06;22.60;12.40
48515;DHT22;34309;47.260;2.796;2023-01-24T00:56:40;22.50;12.50
48515;DHT22;34309;47.260;2.796;2023-01-24T00:59:15;22.50;12.50
48515;DHT22;34309;47.260;2.796;2023-01-24T01:01:48;22.50;12.50
48515;DHT22;34309;47.260;2.796;2023-01-24T01:04:22;22.40;12.50
48515;DHT22;34309;47.260;2.796;2023-01-24T01:06:56;22.40;12.40
48515;DHT22;34309;47.260;2.796;2023-01-24T01:09:30;22.50;12.50
48515;DHT22;34309;47.260;2.796;2023-01-24T01:12:04;22.50;12.50
48515;DHT22;34309;47.260;2.796;2023-01-24T01:14:39;22.50;12.50
48515;DHT22;34309;47.260;2.796;2023-01-24T01:17:13;22.50;12.40
48515;DHT22;34309;47.260;2.796;2023-01-24T01:19:50;22.50;12.60
48515;DHT22;34309;47.260;2.796;2023-01-24T01:22:23;22.50;12.40
48515;DHT22;34309;47.260;2.796;2023-01-24T01:24:57;22.40;12.70
48515;DHT22;34309;47.260;2.796;2023-01-24T01:27:32;22.40;12.60
48515;DHT22;34309;47.260;2.796;2023-01-24T01:30:09;22.30;12.70
48515;DHT22;34309;47.260;2.796;2023-01-24T01:32:43;22.20;12.70
48515;DHT22;34309;47.260;2.796;2023-01-24T01:35:17;22.10;12.80
48515;DHT22;34309;47.260;2.796;2023-01-24T01:37:50;22.10;12.70
48515;DHT22;34309;47.260;2.796;2023-01-24T01:40:24;22.10;12.80
48515;DHT22;34309;47.260;2.796;2023-01-24T01:42:57;22.10;12.80
48515;DHT22;34309;47.260;2.796;2023-01-24T01:45:40;22.10;12.60
48515;DHT22;34309;47.260;2.796;2023-01-24T01:48:22;22.10;12.90
48515;DHT22;34309;47.260;2.796;2023-01-24T01:51:02;22.10;13.00
48515;DHT22;34309;47.260;2.796;2023-01-24T01:53:41;22.10;12.90
48515;DHT22;34309;47.260;2.796;2023-01-24T01:56:24;22.00;12.90
48515;DHT22;34309;47.260;2.796;2023-01-24T01:59:02;22.00;12.90
48515;DHT22;34309;47.260;2.796;2023-01-24T02:01:38;22.00;12.90
48515;DHT22;34309;47.260;2.796;2023-01-24T02:04:09;22.00;12.90
48515;DHT22;34309;47.260;2.796;2023-01-24T02:06:50;22.00;12.80
48515;DHT22;34309;47.260;2.796;2023-01-24T02:09:28;21.90;13.00
48515;DHT22;34309;47.260;2.796;2023-01-24T02:12:05;21.90;12.90
48515;DHT22;34309;47.260;2.796;2023-01-24T02:14:40;21.90;13.10
48515;DHT22;34309;47.260;2.796;2023-01-24T02:17:32;21.90;12.90
48515;DHT22;34309;47.260;2.796;2023-01-24T02:20:18;21.90;13.00
48515;DHT22;34309;47.260;2.796;2023-01-24T02:23:01;21.90;12.80
48515;DHT22;34309;47.260;2.796;2023-01-24T02:25:40;21.90;12.80
48515;DHT22;34309;47.260;2.796;2023-01-24T02:28:17;21.90;12.90
48515;DHT22;34309;47.260;2.796;2023-01-24T02:30:51;22.00;12.90
48515;DHT22;34309;47.260;2.796;2023-01-24T02:33:25;21.90;12.70
48515;DHT22;34309;47.260;2.796;2023-01-24T02:36:20;22.00;12.80
48515;DHT22;34309;47.260;2.796;2023-01-24T02:38:58;21.90;13.00
48515;DHT22;34309;47.260;2.796;2023-01-24T02:41:38;21.90;12.80
48515;DHT22;34309;47.260;2.796;2023-01-24T02:44:19;21.90;12.70
48515;DHT22;34309;47.260;2.796;2023-01-24T02:46:55;22.00;12.90
48515;DHT22;34309;47.260;2.796;2023-01-24T02:49:28;21.90;12.80
48515;DHT22;34309;47.260;2.796;2023-01-24T02:52:02;21.90;12.80
48515;DHT22;34309;47.260;2.796;2023-01-24T02:54:53;21.90;12.90
48515;DHT22;34309;47.260;2.796;2023-01-24T02:57:27;21.90;12.80
48515;DHT22;34309;47.260;2.796;2023-01-24T03:00:20;21.90;12.80
48515;DHT22;34309;47.260;2.796;2023-01-24T03:02:53;21.90;12.80
48515;DHT22;34309;47.260;2.796;2023-01-24T03:05:28;21.90;12.70
48515;DHT22;34309;47.260;2.796;2023-01-24T03:08:11;22.00;12.90
48515;DHT22;34309;47.260;2.796;2023-01-24T03:10:45;21.90;12.90
48515;DHT22;34309;47.260;2.796;2023-01-24T03:13:20;21.80;12.90
48515;DHT22;34309;47.260;2.796;2023-01-24T03:16:12;21.80;12.80
48515;DHT22;34309;47.260;2.796;2023-01-24T03:19:04;21.80;13.00
48515;DHT22;34309;47.260;2.796;2023-01-24T03:21:55;21.70;12.90
48515;DHT22;34309;47.260;2.796;2023-01-24T03:24:47;21.70;12.90
48515;DHT22;34309;47.260;2.796;2023-01-24T03:27:38;21.70;13.20
48515;DHT22;34309;47.260;2.796;2023-01-24T03:30:29;21.60;13.10
48515;DHT22;34309;47.260;2.796;2023-01-24T03:33:21;21.60;13.00
48515;DHT22;34309;47.260;2.796;2023-01-24T03:36:12;21.50;13.10
48515;DHT22;34309;47.260;2.796;2023-01-24T03:38:51;21.40;13.20
48515;DHT22;34309;47.260;2.796;2023-01-24T03:41:41;21.30;13.10
48515;DHT22;34309;47.260;2.796;2023-01-24T03:44:15;21.20;13.30
48515;DHT22;34309;47.260;2.796;2023-01-24T03:46:48;21.20;13.40
48515;DHT22;34309;47.260;2.796;2023-01-24T03:49:23;21.30;13.20
48515;DHT22;34309;47.260;2.796;2023-01-24T03:52:14;21.30;13.40
48515;DHT22;34309;47.260;2.796;2023-01-24T03:55:01;21.40;13.30
48515;DHT22;34309;47.260;2.796;2023-01-24T03:57:34;21.40;13.20
48515;DHT22;34309;47.260;2.796;2023-01-24T04:00:09;21.40;13.10
48515;DHT22;34309;47.260;2.796;2023-01-24T04:02:43;21.50;13.00
48515;DHT22;34309;47.260;2.796;2023-01-24T04:05:19;21.40;13.10
48515;DHT22;34309;47.260;2.796;2023-01-24T04:07:53;21.50;13.30
48515;DHT22;34309;47.260;2.796;2023-01-24T04:10:26;21.50;13.00
48515;DHT22;34309;47.260;2.796;2023-01-24T04:13:00;21.60;13.00
48515;DHT22;34309;47.260;2.796;2023-01-24T04:15:34;21.60;13.00
48515;DHT22;34309;47.260;2.796;2023-01-24T04:18:08;21.50;12.90
48515;DHT22;34309;47.260;2.796;2023-01-24T04:20:45;21.60;13.00
48515;DHT22;34309;47.260;2.796;2023-01-24T04:23:19;21.60;13.00
48515;DHT22;34309;47.260;2.796;2023-01-24T04:25:52;21.60;12.80
48515;DHT22;34309;47.260;2.796;2023-01-24T04:28:30;21.60;13.00
48515;DHT22;34309;47.260;2.796;2023-01-24T04:31:04;21.60;12.90
48515;DHT22;34309;47.260;2.796;2023-01-24T04:33:38;21.60;12.80
48515;DHT22;34309;47.260;2.796;2023-01-24T04:36:13;21.60;12.80
48515;DHT22;34309;47.260;2.796;2023-01-24T04:38:47;21.60;13.00
48515;DHT22;34309;47.260;2.796;2023-01-24T04:41:21;21.60;13.00
48515;DHT22;34309;47.260;2.796;2023-01-24T04:43:54;21.60;12.90
48515;DHT22;34309;47.260;2.796;2023-01-24T04:46:28;21.70;12.80
48515;DHT22;34309;47.260;2.796;2023-01-24T04:49:02;21.70;13.00
48515;DHT22;34309;47.260;2.796;2023-01-24T04:51:37;21.70;12.70
48515;DHT22;34309;47.260;2.796;2023-01-24T04:54:14;21.80;12.80
48515;DHT22;34309;47.260;2.796;2023-01-24T04:56:49;21.70;12.80
48515;DHT22;34309;47.260;2.796;2023-01-24T04:59:25;21.60;12.80
48515;DHT22;34309;47.260;2.796;2023-01-24T05:01:59;21.60;13.00
48515;DHT22;34309;47.260;2.796;2023-01-24T05:04:33;21.60;12.90
48515;DHT22;34309;47.260;2.796;2023-01-24T05:07:09;21.60;12.90
48515;DHT22;34309;47.260;2.796;2023-01-24T05:09:42;21.60;13.00
48515;DHT22;34309;47.260;2.796;2023-01-24T05:12:16;21.60;12.90
48515;DHT22;34309;47.260;2.796;2023-01-24T05:14:50;21.50;12.80
48515;DHT22;34309;47.260;2.796;2023-01-24T05:17:24;21.40;12.70
48515;DHT22;34309;47.260;2.796;2023-01-24T05:19:57;21.30;13.00
48515;DHT22;34309;47.260;2.796;2023-01-24T05:22:32;21.20;13.10
48515;DHT22;34309;47.260;2.796;2023-01-24T05:25:07;21.10;13.10
48515;DHT22;34309;47.260;2.796;2023-01-24T05:27:40;21.00;13.20
48515;DHT22;34309;47.260;2.796;2023-01-24T05:30:15;20.80;13.30
48515;DHT22;34309;47.260;2.796;2023-01-24T05:32:48;20.80;13.30
48515;DHT22;34309;47.260;2.796;2023-01-24T05:35:22;20.70;13.40
48515;DHT22;34309;47.260;2.796;2023-01-24T05:37:58;20.60;13.60
48515;DHT22;34309;47.260;2.796;2023-01-24T05:40:31;20.40;13.70
48515;DHT22;34309;47.260;2.796;2023-01-24T05:43:05;20.40;14.00
48515;DHT22;34309;47.260;2.796;2023-01-24T05:45:39;20.40;14.00
48515;DHT22;34309;47.260;2.796;2023-01-24T05:48:13;20.40;14.00
48515;DHT22;34309;47.260;2.796;2023-01-24T05:50:46;20.40;14.00
48515;DHT22;34309;47.260;2.796;2023-01-24T05:53:21;20.40;14.00
48515;DHT22;34309;47.260;2.796;2023-01-24T05:55:56;20.60;14.20
48515;DHT22;34309;47.260;2.796;2023-01-24T05:58:33;20.70;13.60
48515;DHT22;34309;47.260;2.796;2023-01-24T06:01:08;20.80;13.70
48515;DHT22;34309;47.260;2.796;2023-01-24T06:03:37;20.90;13.50
48515;DHT22;34309;47.260;2.796;2023-01-24T06:06:13;21.00;13.50
48515;DHT22;34309;47.260;2.796;2023-01-24T06:08:48;21.00;13.20
48515;DHT22;34309;47.260;2.796;2023-01-24T06:11:23;21.10;13.30
48515;DHT22;34309;47.260;2.796;2023-01-24T06:13:57;21.20;13.20
48515;DHT22;34309;47.260;2.796;2023-01-24T06:16:31;21.20;13.10
48515;DHT22;34309;47.260;2.796;2023-01-24T06:19:05;21.30;13.30
48515;DHT22;34309;47.260;2.796;2023-01-24T06:21:44;21.40;13.20
48515;DHT22;34309;47.260;2.796;2023-01-24T06:24:21;21.30;13.00
48515;DHT22;34309;47.260;2.796;2023-01-24T06:26:56;21.40;13.10
48515;DHT22;34309;47.260;2.796;2023-01-24T06:29:30;21.40;12.90
48515;DHT22;34309;47.260;2.796;2023-01-24T06:32:13;21.50;13.00
48515;DHT22;34309;47.260;2.796;2023-01-24T06:35:15;21.50;12.90
48515;DHT22;34309;47.260;2.796;2023-01-24T06:37:52;21.50;13.00
48515;DHT22;34309;47.260;2.796;2023-01-24T06:40:28;21.50;12.90
48515;DHT22;34309;47.260;2.796;2023-01-24T06:43:03;21.50;12.90
48515;DHT22;34309;47.260;2.796;2023-01-24T06:45:37;21.50;12.80
48515;DHT22;34309;47.260;2.796;2023-01-24T06:48:11;21.50;13.00
48515;DHT22;34309;47.260;2.796;2023-01-24T06:50:45;21.50;13.00
48515;DHT22;34309;47.260;2.796;2023-01-24T06:53:18;21.60;12.90
48515;DHT22;34309;47.260;2.796;2023-01-24T06:55:53;21.60;12.80
48515;DHT22;34309;47.260;2.796;2023-01-24T06:58:27;21.60;12.90
48515;DHT22;34309;47.260;2.796;2023-01-24T07:01:01;21.60;12.90
48515;DHT22;34309;47.260;2.796;2023-01-24T07:03:34;21.60;13.00
48515;DHT22;34309;47.260;2.796;2023-01-24T07:06:08;21.60;12.80
48515;DHT22;34309;47.260;2.796;2023-01-24T07:08:42;21.60;12.70
48515;DHT22;34309;47.260;2.796;2023-01-24T07:11:17;21.60;12.80
48515;DHT22;34309;47.260;2.796;2023-01-24T07:13:50;21.60;12.80
48515;DHT22;34309;47.260;2.796;2023-01-24T07:16:24;21.50;12.80
48515;DHT22;34309;47.260;2.796;2023-01-24T07:18:58;21.50;12.80
48515;DHT22;34309;47.260;2.796;2023-01-24T07:21:34;21.50;12.70
48515;DHT22;34309;47.260;2.796;2023-01-24T07:24:13;21.50;12.90
48515;DHT22;34309;47.260;2.796;2023-01-24T07:26:49;21.40;12.80
48515;DHT22;34309;47.260;2.796;2023-01-24T07:29:23;21.30;13.50
48515;DHT22;34309;47.260;2.796;2023-01-24T07:31:57;21.30;13.60
48515;DHT22;34309;47.260;2.796;2023-01-24T07:34:30;21.30;13.10
48515;DHT22;34309;47.260;2.796;2023-01-24T07:37:06;21.30;12.90
48515;DHT22;34309;47.260;2.796;2023-01-24T07:39:40;21.50;12.80
48515;DHT22;34309;47.260;2.796;2023-01-24T07:42:15;21.60;13.10
48515;DHT22;34309;47.260;2.796;2023-01-24T07:44:48;21.80;12.70
48515;DHT22;34309;47.260;2.796;2023-01-24T07:47:22;21.90;12.60
48515;DHT22;34309;47.260;2.796;2023-01-24T07:49:56;21.90;12.50
48515;DHT22;34309;47.260;2.796;2023-01-24T07:52:30;22.00;12.50
48515;DHT22;34309;47.260;2.796;2023-01-24T07:55:04;22.00;12.60
48515;DHT22;34309;47.260;2.796;2023-01-24T07:57:42;22.00;12.60
48515;DHT22;34309;47.260;2.796;2023-01-24T08:00:17;21.90;12.60
48515;DHT22;34309;47.260;2.796;2023-01-24T08:02:51;22.00;12.60
48515;DHT22;34309;47.260;2.796;2023-01-24T08:05:25;22.00;12.50
48515;DHT22;34309;47.260;2.796;2023-01-24T08:07:59;22.00;12.60
48515;DHT22;34309;47.260;2.796;2023-01-24T08:10:32;21.90;12.60
48515;DHT22;34309;47.260;2.796;2023-01-24T08:13:07;21.80;12.60
48515;DHT22;34309;47.260;2.796;2023-01-24T08:15:41;21.80;12.70
48515;DHT22;34309;47.260;2.796;2023-01-24T08:18:15;21.70;12.70
48515;DHT22;34309;47.260;2.796;2023-01-24T08:20:53;21.60;12.80
48515;DHT22;34309;47.260;2.796;2023-01-24T08:23:27;21.60;12.70
48515;DHT22;34309;47.260;2.796;2023-01-24T08:26:01;21.60;12.80
48515;DHT22;34309;47.260;2.796;2023-01-24T08:28:39;21.70;12.80
48515;DHT22;34309;47.260;2.796;2023-01-24T08:31:12;21.70;12.60
48515;DHT22;34309;47.260;2.796;2023-01-24T08:33:46;21.70;12.70
48515;DHT22;34309;47.260;2.796;2023-01-24T08:36:20;21.80;12.90
48515;DHT22;34309;47.260;2.796;2023-01-24T08:38:54;21.70;12.60
48515;DHT22;34309;47.260;2.796;2023-01-24T08:41:27;21.70;12.70
48515;DHT22;34309;47.260;2.796;2023-01-24T08:44:03;21.70;12.70
48515;DHT22;34309;47.260;2.796;2023-01-24T08:46:36;21.70;12.70
48515;DHT22;34309;47.260;2.796;2023-01-24T08:49:10;21.60;12.60
48515;DHT22;34309;47.260;2.796;2023-01-24T08:51:44;21.70;12.70
48515;DHT22;34309;47.260;2.796;2023-01-24T08:54:19;21.70;12.70
48515;DHT22;34309;47.260;2.796;2023-01-24T08:56:53;21.70;12.80
48515;DHT22;34309;47.260;2.796;2023-01-24T08:59:28;21.80;12.40
48515;DHT22;34309;47.260;2.796;2023-01-24T09:02:02;21.80;12.40
48515;DHT22;34309;47.260;2.796;2023-01-24T09:04:36;21.80;12.60
48515;DHT22;34309;47.260;2.796;2023-01-24T09:07:10;21.70;13.20
48515;DHT22;34309;47.260;2.796;2023-01-24T09:09:44;21.70;12.60
48515;DHT22;34309;47.260;2.796;2023-01-24T09:12:17;21.70;12.60
48515;DHT22;34309;47.260;2.796;2023-01-24T09:14:52;21.70;12.60
48515;DHT22;34309;47.260;2.796;2023-01-24T09:17:26;21.70;12.70
48515;DHT22;34309;47.260;2.796;2023-01-24T09:20:00;21.60;12.50
48515;DHT22;34309;47.260;2.796;2023-01-24T09:22:33;21.70;12.70
48515;DHT22;34309;47.260;2.796;2023-01-24T09:25:08;21.70;12.50
48515;DHT22;34309;47.260;2.796;2023-01-24T09:27:42;21.60;12.50
48515;DHT22;34309;47.260;2.796;2023-01-24T09:30:18;21.60;12.60
48515;DHT22;34309;47.260;2.796;2023-01-24T09:32:55;21.60;12.50
48515;DHT22;34309;47.260;2.796;2023-01-24T09:35:28;21.60;12.50
48515;DHT22;34309;47.260;2.796;2023-01-24T09:38:06;21.60;12.70
48515;DHT22;34309;47.260;2.796;2023-01-24T09:40:46;21.50;12.60
48515;DHT22;34309;47.260;2.796;2023-01-24T09:43:43;21.50;12.80
48515;DHT22;34309;47.260;2.796;2023-01-24T09:46:25;21.40;13.00
48515;DHT22;34309;47.260;2.796;2023-01-24T09:49:13;21.40;13.10
48515;DHT22;34309;47.260;2.796;2023-01-24T09:51:51;21.30;13.10
48515;DHT22;34309;47.260;2.796;2023-01-24T09:54:31;21.30;13.10
48515;DHT22;34309;47.260;2.796;2023-01-24T09:57:13;21.20;13.20
48515;DHT22;34309;47.260;2.796;2023-01-24T09:59:53;21.20;13.30
48515;DHT22;34309;47.260;2.796;2023-01-24T10:02:31;21.20;13.30
48515;DHT22;34309;47.260;2.796;2023-01-24T10:05:10;21.10;13.50
48515;DHT22;34309;47.260;2.796;2023-01-24T10:08:01;21.00;13.60
48515;DHT22;34309;47.260;2.796;2023-01-24T10:10:49;20.90;13.60
48515;DHT22;34309;47.260;2.796;2023-01-24T10:16:48;20.80;13.90
48515;DHT22;34309;47.260;2.796;2023-01-24T10:19:47;20.70;14.20
48515;DHT22;34309;47.260;2.796;2023-01-24T10:22:35;20.60;14.10
48515;DHT22;34309;47.260;2.796;2023-01-24T10:25:21;20.50;14.70
48515;DHT22;34309;47.260;2.796;2023-01-24T10:27:56;20.40;14.00
48515;DHT22;34309;47.260;2.796;2023-01-24T10:30:39;20.40;14.00
48515;DHT22;34309;47.260;2.796;2023-01-24T10:33:15;20.30;14.00
48515;DHT22;34309;47.260;2.796;2023-01-24T10:35:56;20.10;14.10
48515;DHT22;34309;47.260;2.796;2023-01-24T10:38:32;20.00;14.60
48515;DHT22;34309;47.260;2.796;2023-01-24T10:41:17;19.90;16.30
48515;DHT22;34309;47.260;2.796;2023-01-24T10:43:55;19.80;16.00
48515;DHT22;34309;47.260;2.796;2023-01-24T10:46:50;19.70;15.80
48515;DHT22;34309;47.260;2.796;2023-01-24T10:49:29;19.60;16.00
48515;DHT22;34309;47.260;2.796;2023-01-24T10:52:12;19.80;16.10
48515;DHT22;34309;47.260;2.796;2023-01-24T10:54:49;19.80;15.80
48515;DHT22;34309;47.260;2.796;2023-01-24T10:57:37;19.90;15.80
48515;DHT22;34309;47.260;2.796;2023-01-24T11:00:23;20.10;15.70
48515;DHT22;34309;47.260;2.796;2023-01-24T11:03:00;20.20;15.40
48515;DHT22;34309;47.260;2.796;2023-01-24T11:05:38;20.40;15.30
48515;DHT22;34309;47.260;2.796;2023-01-24T11:08:18;20.40;15.20
48515;DHT22;34309;47.260;2.796;2023-01-24T11:10:54;20.40;15.00
48515;DHT22;34309;47.260;2.796;2023-01-24T11:13:35;20.50;15.00
48515;DHT22;34309;47.260;2.796;2023-01-24T11:16:21;20.50;14.80
48515;DHT22;34309;47.260;2.796;2023-01-24T11:18:59;20.50;14.70
48515;DHT22;34309;47.260;2.796;2023-01-24T11:21:34;20.50;14.60
48515;DHT22;34309;47.260;2.796;2023-01-24T11:24:24;20.50;14.50
48515;DHT22;34309;47.260;2.796;2023-01-24T11:27:02;20.50;14.60
48515;DHT22;34309;47.260;2.796;2023-01-24T11:29:36;20.50;14.60
48515;DHT22;34309;47.260;2.796;2023-01-24T11:32:28;20.40;14.70
48515;DHT22;34309;47.260;2.796;2023-01-24T11:35:11;20.40;14.80
48515;DHT22;34309;47.260;2.796;2023-01-24T11:38:12;20.40;14.80
48515;DHT22;34309;47.260;2.796;2023-01-24T11:41:01;20.30;14.70
48515;DHT22;34309;47.260;2.796;2023-01-24T11:43:46;20.30;14.70
48515;DHT22;34309;47.260;2.796;2023-01-24T11:46:49;20.20;14.70
48515;DHT22;34309;47.260;2.796;2023-01-24T11:49:41;20.20;14.80
48515;DHT22;34309;47.260;2.796;2023-01-24T11:55:33;20.10;14.90
48515;DHT22;34309;47.260;2.796;2023-01-24T12:01:17;19.90;15.00
48515;DHT22;34309;47.260;2.796;2023-01-24T12:04:07;19.80;15.00
48515;DHT22;34309;47.260;2.796;2023-01-24T12:06:55;19.70;15.10
48515;DHT22;34309;47.260;2.796;2023-01-24T12:09:34;19.60;15.20
48515;DHT22;34309;47.260;2.796;2023-01-24T12:12:16;19.50;15.20
48515;DHT22;34309;47.260;2.796;2023-01-24T12:15:19;19.40;15.60
48515;DHT22;34309;47.260;2.796;2023-01-24T12:20:58;19.30;15.60
48515;DHT22;34309;47.260;2.796;2023-01-24T12:23:44;19.20;15.70
48515;DHT22;34309;47.260;2.796;2023-01-24T12:26:22;19.10;15.60
48515;DHT22;34309;47.260;2.796;2023-01-24T12:29:02;19.10;15.80
48515;DHT22;34309;47.260;2.796;2023-01-24T12:31:46;19.00;15.80
48515;DHT22;34309;47.260;2.796;2023-01-24T12:34:41;18.90;15.80
48515;DHT22;34309;47.260;2.796;2023-01-24T12:37:26;18.90;15.90
48515;DHT22;34309;47.260;2.796;2023-01-24T12:40:03;18.80;15.80
48515;DHT22;34309;47.260;2.796;2023-01-24T12:42:48;18.70;16.00
48515;DHT22;34309;47.260;2.796;2023-01-24T12:45:26;18.60;15.90
48515;DHT22;34309;47.260;2.796;2023-01-24T12:48:09;18.60;16.10
48515;DHT22;34309;47.260;2.796;2023-01-24T12:50:49;18.50;16.30
48515;DHT22;34309;47.260;2.796;2023-01-24T12:53:29;18.40;16.10
48515;DHT22;34309;47.260;2.796;2023-01-24T12:56:11;18.40;16.20
48515;DHT22;34309;47.260;2.796;2023-01-24T12:58:48;18.30;16.40
48515;DHT22;34309;47.260;2.796;2023-01-24T13:01:40;18.30;16.50
48515;DHT22;34309;47.260;2.796;2023-01-24T13:04:26;18.30;16.50
48515;DHT22;34309;47.260;2.796;2023-01-24T13:07:08;18.30;16.50
48515;DHT22;34309;47.260;2.796;2023-01-24T13:09:59;18.30;16.30
48515;DHT22;34309;47.260;2.796;2023-01-24T13:12:34;18.50;16.60
48515;DHT22;34309;47.260;2.796;2023-01-24T13:15:15;18.50;16.30
48515;DHT22;34309;47.260;2.796;2023-01-24T13:18:11;18.80;16.10
48515;DHT22;34309;47.260;2.796;2023-01-24T13:20:59;19.00;15.90
48515;DHT22;34309;47.260;2.796;2023-01-24T13:24:04;19.10;15.70
48515;DHT22;34309;47.260;2.796;2023-01-24T13:27:01;19.10;15.80
48515;DHT22;34309;47.260;2.796;2023-01-24T13:29:47;19.20;15.80
48515;DHT22;34309;47.260;2.796;2023-01-24T13:32:24;19.40;16.10
48515;DHT22;34309;47.260;2.796;2023-01-24T13:34:59;19.50;15.20
48515;DHT22;34309;47.260;2.796;2023-01-24T13:37:35;19.60;15.00
48515;DHT22;34309;47.260;2.796;2023-01-24T13:40:23;19.70;15.20
48515;DHT22;34309;47.260;2.796;2023-01-24T13:42:59;19.70;15.30
48515;DHT22;34309;47.260;2.796;2023-01-24T13:45:50;19.70;15.10
48515;DHT22;34309;47.260;2.796;2023-01-24T13:48:47;19.70;15.20
48515;DHT22;34309;47.260;2.796;2023-01-24T13:51:32;19.50;15.20
48515;DHT22;34309;47.260;2.796;2023-01-24T13:54:17;19.50;15.40
48515;DHT22;34309;47.260;2.796;2023-01-24T13:57:21;19.40;15.30
48515;DHT22;34309;47.260;2.796;2023-01-24T14:03:04;19.30;15.30
48515;DHT22;34309;47.260;2.796;2023-01-24T14:05:50;19.30;15.50
48515;DHT22;34309;47.260;2.796;2023-01-24T14:08:46;19.20;15.70
48515;DHT22;34309;47.260;2.796;2023-01-24T14:11:34;19.20;15.60
48515;DHT22;34309;47.260;2.796;2023-01-24T14:14:33;19.10;15.60
48515;DHT22;34309;47.260;2.796;2023-01-24T14:20:36;19.00;15.70
48515;DHT22;34309;47.260;2.796;2023-01-24T14:23:16;19.00;15.60
48515;DHT22;34309;47.260;2.796;2023-01-24T14:25:54;18.90;15.70
48515;DHT22;34309;47.260;2.796;2023-01-24T14:28:36;18.90;15.80
48515;DHT22;34309;47.260;2.796;2023-01-24T14:31:19;18.80;16.40
48515;DHT22;34309;47.260;2.796;2023-01-24T14:33:55;18.80;15.80
48515;DHT22;34309;47.260;2.796;2023-01-24T14:36:33;18.70;15.90
48515;DHT22;34309;47.260;2.796;2023-01-24T14:39:17;18.60;15.90
48515;DHT22;34309;47.260;2.796;2023-01-24T14:41:56;18.60;15.90
48515;DHT22;34309;47.260;2.796;2023-01-24T14:44:37;18.60;16.00
48515;DHT22;34309;47.260;2.796;2023-01-24T14:47:18;18.50;16.10
48515;DHT22;34309;47.260;2.796;2023-01-24T14:49:54;18.50;16.30
48515;DHT22;34309;47.260;2.796;2023-01-24T14:52:29;18.40;16.20
48515;DHT22;34309;47.260;2.796;2023-01-24T14:55:28;18.40;16.50
48515;DHT22;34309;47.260;2.796;2023-01-24T14:58:14;18.40;16.30
48515;DHT22;34309;47.260;2.796;2023-01-24T15:00:52;18.30;16.40
48515;DHT22;34309;47.260;2.796;2023-01-24T15:03:28;18.20;16.40
48515;DHT22;34309;47.260;2.796;2023-01-24T15:06:04;18.20;16.50
48515;DHT22;34309;47.260;2.796;2023-01-24T15:08:38;18.20;16.60
48515;DHT22;34309;47.260;2.796;2023-01-24T15:11:19;18.10;16.60
48515;DHT22;34309;47.260;2.796;2023-01-24T15:13:57;18.20;16.90
48515;DHT22;34309;47.260;2.796;2023-01-24T15:16:35;18.20;17.10
48515;DHT22;34309;47.260;2.796;2023-01-24T15:19:16;18.10;17.10
48515;DHT22;34309;47.260;2.796;2023-01-24T15:21:56;18.10;17.30
48515;DHT22;34309;47.260;2.796;2023-01-24T15:24:31;18.20;17.60
48515;DHT22;34309;47.260;2.796;2023-01-24T15:27:21;18.40;17.60
48515;DHT22;34309;47.260;2.796;2023-01-24T15:30:17;18.50;17.80
48515;DHT22;34309;47.260;2.796;2023-01-24T15:33:00;18.60;17.60
48515;DHT22;34309;47.260;2.796;2023-01-24T15:35:36;18.80;17.70
48515;DHT22;34309;47.260;2.796;2023-01-24T15:38:20;18.90;17.60
48515;DHT22;34309;47.260;2.796;2023-01-24T15:41:01;19.00;17.70
48515;DHT22;34309;47.260;2.796;2023-01-24T15:43:37;19.10;17.50
48515;DHT22;34309;47.260;2.796;2023-01-24T15:46:33;19.20;17.50
48515;DHT22;34309;47.260;2.796;2023-01-24T15:49:30;19.30;17.50
48515;DHT22;34309;47.260;2.796;2023-01-24T15:52:19;19.40;17.50
48515;DHT22;34309;47.260;2.796;2023-01-24T15:54:55;19.40;17.30
48515;DHT22;34309;47.260;2.796;2023-01-24T15:57:32;19.50;17.20
48515;DHT22;34309;47.260;2.796;2023-01-24T16:00:22;19.50;17.20
48515;DHT22;34309;47.260;2.796;2023-01-24T16:02:56;19.60;17.10
48515;DHT22;34309;47.260;2.796;2023-01-24T16:05:32;19.60;17.30
48515;DHT22;34309;47.260;2.796;2023-01-24T16:08:05;19.60;17.10
48515;DHT22;34309;47.260;2.796;2023-01-24T16:10:40;19.60;17.20
48515;DHT22;34309;47.260;2.796;2023-01-24T16:13:32;19.60;17.10
48515;DHT22;34309;47.260;2.796;2023-01-24T16:16:09;19.60;17.10
48515;DHT22;34309;47.260;2.796;2023-01-24T16:18:43;19.60;17.10
48515;DHT22;34309;47.260;2.796;2023-01-24T16:21:21;19.60;17.20
48515;DHT22;34309;47.260;2.796;2023-01-24T16:23:55;19.60;17.30
48515;DHT22;34309;47.260;2.796;2023-01-24T16:26:29;19.70;17.30
48515;DHT22;34309;47.260;2.796;2023-01-24T16:29:03;19.70;17.30
48515;DHT22;34309;47.260;2.796;2023-01-24T16:31:36;19.70;17.40
48515;DHT22;34309;47.260;2.796;2023-01-24T16:34:10;19.60;17.30
48515;DHT22;34309;47.260;2.796;2023-01-24T16:36:45;19.60;17.50
48515;DHT22;34309;47.260;2.796;2023-01-24T16:39:22;19.60;17.40
48515;DHT22;34309;47.260;2.796;2023-01-24T16:41:56;19.60;17.50
48515;DHT22;34309;47.260;2.796;2023-01-24T16:44:35;19.60;17.50
48515;DHT22;34309;47.260;2.796;2023-01-24T16:47:09;19.50;17.50
48515;DHT22;34309;47.260;2.796;2023-01-24T16:49:43;19.50;17.50
48515;DHT22;34309;47.260;2.796;2023-01-24T16:52:18;19.50;17.70
48515;DHT22;34309;47.260;2.796;2023-01-24T16:54:52;19.40;17.50
48515;DHT22;34309;47.260;2.796;2023-01-24T16:57:25;19.30;17.60
48515;DHT22;34309;47.260;2.796;2023-01-24T16:59:59;19.30;17.60